sensor_id;sensor_type;location;lat;lon;timestamp;pressure;altitude;pressure_sealevel;temperature;humidity
31062;BME280;17724;53.546;9.974;2024-03-08T00:01:54;102427.88;;;4.67;82.07
31062;BME280;17724;53.546;9.974;2024-03-08T00:05:55;102427.59;;;5.08;80.67
31062;BME280;17724;53.546;9.974;2024-03-08T00:09:56;102416.56;;;5.02;80.69
31062;BME280;17724;53.546;9.974;2024-03-08T00:13:57;102423.56;;;4.73;81.13
31062;BME280;17724;53.546;9.974;2024-03-08T00:17:57;102410.78;;;4.74;81.61
31062;BME280;17724;53.546;9.974;2024-03-08T00:22:01;102388.56;;;4.62;81.81
31062;BME280;17724;53.546;9.974;2024-03-08T00:26:01;102411.41;;;4.84;81.54
31062;BME280;17724;53.546;9.974;2024-03-08T00:30:04;102415.16;;;4.60;82.57
31062;BME280;17724;53.546;9.974;2024-03-08T00:34:05;102399.22;;;4.94;81.09
31062;BME280;17724;53.546;9.974;2024-03-08T00:38:06;102412.47;;;4.83;80.78
31062;BME280;17724;53.546;9.974;2024-03-08T00:42:07;102403.66;;;4.73;81.88
31062;BME280;17724;53.546;9.974;2024-03-08T00:46:08;102407.06;;;4.43;83.35
31062;BME280;17724;53.546;9.974;2024-03-08T00:50:09;102414.00;;;4.46;83.10
31062;BME280;17724;53.546;9.974;2024-03-08T00:54:09;102404.00;;;4.38;83.86
31062;BME280;17724;53.546;9.974;2024-03-08T00:58:10;102408.50;;;4.31;84.12
31062;BME280;17724;53.546;9.974;2024-03-08T01:02:10;102399.84;;;4.28;84.82
31062;BME280;17724;53.546;9.974;2024-03-08T01:06:11;102400.44;;;4.38;84.23
31062;BME280;17724;53.546;9.974;2024-03-08T01:10:12;102393.19;;;4.22;85.11
31062;BME280;17724;53.546;9.974;2024-03-08T01:14:12;102389.66;;;4.53;84.94
31062;BME280;17724;53.546;9.974;2024-03-08T01:18:13;102380.50;;;4.68;83.71
31062;BME280;17724;53.546;9.974;2024-03-08T01:22:13;102380.03;;;4.88;82.14
31062;BME280;17724;53.546;9.974;2024-03-08T01:26:14;102368.69;;;4.53;83.42
31062;BME280;17724;53.546;9.974;2024-03-08T01:30:15;102359.78;;;4.36;83.84
31062;BME280;17724;53.546;9.974;2024-03-08T01:34:17;102359.47;;;4.54;83.51
31062;BME280;17724;53.546;9.974;2024-03-08T01:38:18;102350.41;;;4.39;83.51
31062;BME280;17724;53.546;9.974;2024-03-08T01:42:19;102342.09;;;4.32;84.54
31062;BME280;17724;53.546;9.974;2024-03-08T01:46:20;102337.69;;;4.54;83.64
31062;BME280;17724;53.546;9.974;2024-03-08T01:50:22;102338.44;;;4.71;83.14
31062;BME280;17724;53.546;9.974;2024-03-08T01:54:23;102338.81;;;4.37;84.41
31062;BME280;17724;53.546;9.974;2024-03-08T01:58:27;102302.09;;;4.02;84.86
31062;BME280;17724;53.546;9.974;2024-03-08T02:02:33;102322.00;;;4.33;85.55
31062;BME280;17724;53.546;9.974;2024-03-08T02:06:37;102321.81;;;4.35;85.27
31062;BME280;17724;53.546;9.974;2024-03-08T02:10:39;102314.47;;;4.12;86.36
31062;BME280;17724;53.546;9.974;2024-03-08T02:14:39;102312.97;;;4.02;86.33
31062;BME280;17724;53.546;9.974;2024-03-08T02:18:40;102310.00;;;4.19;86.09
31062;BME280;17724;53.546;9.974;2024-03-08T02:22:40;102308.72;;;4.07;86.36
31062;BME280;17724;53.546;9.974;2024-03-08T02:26:41;102300.91;;;4.04;87.68
31062;BME280;17724;53.546;9.974;2024-03-08T02:30:42;102302.38;;;4.07;85.98
31062;BME280;17724;53.546;9.974;2024-03-08T02:34:43;102304.50;;;3.97;87.06
31062;BME280;17724;53.546;9.974;2024-03-08T02:38:43;102291.88;;;4.04;86.02
31062;BME280;17724;53.546;9.974;2024-03-08T02:42:44;102293.75;;;3.72;87.99
31062;BME280;17724;53.546;9.974;2024-03-08T02:46:44;102292.84;;;3.80;87.22
31062;BME280;17724;53.546;9.974;2024-03-08T02:50:45;102296.94;;;4.07;87.81
31062;BME280;17724;53.546;9.974;2024-03-08T02:54:45;102287.38;;;4.11;86.95
31062;BME280;17724;53.546;9.974;2024-03-08T02:58:47;102294.78;;;3.71;87.71
31062;BME280;17724;53.546;9.974;2024-03-08T03:02:49;102274.41;;;3.51;89.67
31062;BME280;17724;53.546;9.974;2024-03-08T03:06:56;102269.63;;;3.61;89.54
31062;BME280;17724;53.546;9.974;2024-03-08T03:10:58;102272.84;;;3.64;89.82
31062;BME280;17724;53.546;9.974;2024-03-08T03:14:58;102258.16;;;3.74;89.09
31062;BME280;17724;53.546;9.974;2024-03-08T03:18:59;102277.38;;;3.80;88.88
31062;BME280;17724;53.546;9.974;2024-03-08T03:23:02;102274.03;;;3.62;88.66
31062;BME280;17724;53.546;9.974;2024-03-08T03:27:04;102268.13;;;3.89;88.03
31062;BME280;17724;53.546;9.974;2024-03-08T03:31:10;102273.91;;;3.86;88.57
31062;BME280;17724;53.546;9.974;2024-03-08T03:35:14;102270.63;;;3.68;88.99
31062;BME280;17724;53.546;9.974;2024-03-08T03:39:18;102265.94;;;3.45;89.69
31062;BME280;17724;53.546;9.974;2024-03-08T03:43:20;102266.56;;;3.64;89.52
31062;BME280;17724;53.546;9.974;2024-03-08T03:47:20;102264.97;;;3.78;89.36
31062;BME280;17724;53.546;9.974;2024-03-08T03:51:21;102256.25;;;3.82;88.36
31062;BME280;17724;53.546;9.974;2024-03-08T03:55:22;102261.69;;;3.82;88.27
31062;BME280;17724;53.546;9.974;2024-03-08T03:59:22;102263.28;;;3.77;88.44
31062;BME280;17724;53.546;9.974;2024-03-08T04:03:23;102268.06;;;3.66;88.33
31062;BME280;17724;53.546;9.974;2024-03-08T04:07:23;102260.28;;;3.63;88.81
31062;BME280;17724;53.546;9.974;2024-03-08T04:11:23;102265.84;;;3.70;89.52
31062;BME280;17724;53.546;9.974;2024-03-08T04:15:24;102268.13;;;3.50;89.79
31062;BME280;17724;53.546;9.974;2024-03-08T04:19:24;102258.38;;;3.25;90.85
31062;BME280;17724;53.546;9.974;2024-03-08T04:23:27;102252.25;;;3.14;91.99
31062;BME280;17724;53.546;9.974;2024-03-08T04:27:28;102240.03;;;3.18;90.87
31062;BME280;17724;53.546;9.974;2024-03-08T04:31:29;102244.53;;;3.42;90.05
31062;BME280;17724;53.546;9.974;2024-03-08T04:35:31;102226.38;;;3.35;90.33
31062;BME280;17724;53.546;9.974;2024-03-08T04:39:31;102239.03;;;3.19;91.57
31062;BME280;17724;53.546;9.974;2024-03-08T04:43:33;102226.63;;;3.17;91.52
31062;BME280;17724;53.546;9.974;2024-03-08T04:47:33;102250.63;;;3.53;90.33
31062;BME280;17724;53.546;9.974;2024-03-08T04:51:34;102243.34;;;3.45;90.41
31062;BME280;17724;53.546;9.974;2024-03-08T04:55:34;102236.22;;;3.44;90.38
31062;BME280;17724;53.546;9.974;2024-03-08T04:59:35;102206.03;;;3.22;91.13
31062;BME280;17724;53.546;9.974;2024-03-08T05:03:36;102226.59;;;3.25;91.17
31062;BME280;17724;53.546;9.974;2024-03-08T05:07:36;102221.97;;;3.34;91.21
31062;BME280;17724;53.546;9.974;2024-03-08T05:11:37;102220.22;;;2.93;91.99
31062;BME280;17724;53.546;9.974;2024-03-08T05:15:38;102218.56;;;2.76;93.37
31062;BME280;17724;53.546;9.974;2024-03-08T05:19:39;102220.16;;;3.10;92.27
31062;BME280;17724;53.546;9.974;2024-03-08T05:23:39;102208.66;;;3.00;92.41
31062;BME280;17724;53.546;9.974;2024-03-08T05:27:40;102225.44;;;3.11;92.02
31062;BME280;17724;53.546;9.974;2024-03-08T05:31:49;102226.28;;;3.20;90.79
31062;BME280;17724;53.546;9.974;2024-03-08T05:35:50;102210.03;;;2.79;92.48
31062;BME280;17724;53.546;9.974;2024-03-08T05:39:50;102219.75;;;2.74;93.16
31062;BME280;17724;53.546;9.974;2024-03-08T05:43:50;102201.59;;;2.66;94.37
31062;BME280;17724;53.546;9.974;2024-03-08T05:47:52;102205.47;;;2.88;93.74
31062;BME280;17724;53.546;9.974;2024-03-08T05:51:52;102206.47;;;2.79;93.01
31062;BME280;17724;53.546;9.974;2024-03-08T05:55:54;102216.34;;;2.88;92.91
31062;BME280;17724;53.546;9.974;2024-03-08T05:59:54;102219.50;;;3.08;92.29
31062;BME280;17724;53.546;9.974;2024-03-08T06:03:56;102219.53;;;3.00;92.09
31062;BME280;17724;53.546;9.974;2024-03-08T06:07:57;102222.28;;;2.91;92.29
31062;BME280;17724;53.546;9.974;2024-03-08T06:11:57;102213.13;;;2.68;93.44
31062;BME280;17724;53.546;9.974;2024-03-08T06:15:58;102219.06;;;2.71;93.58
31062;BME280;17724;53.546;9.974;2024-03-08T06:19:58;102207.81;;;2.83;93.33
31062;BME280;17724;53.546;9.974;2024-03-08T06:23:59;102202.41;;;2.75;92.50
31062;BME280;17724;53.546;9.974;2024-03-08T06:27:59;102212.63;;;2.72;93.61
31062;BME280;17724;53.546;9.974;2024-03-08T06:32:00;102215.84;;;2.76;92.54
31062;BME280;17724;53.546;9.974;2024-03-08T06:36:00;102216.66;;;2.85;92.68
31062;BME280;17724;53.546;9.974;2024-03-08T06:40:01;102212.28;;;2.76;92.87
31062;BME280;17724;53.546;9.974;2024-03-08T06:44:03;102208.84;;;2.90;92.97
31062;BME280;17724;53.546;9.974;2024-03-08T06:48:04;102209.19;;;2.87;92.29
31062;BME280;17724;53.546;9.974;2024-03-08T06:52:10;102205.97;;;2.75;92.52
31062;BME280;17724;53.546;9.974;2024-03-08T06:56:10;102198.50;;;2.77;92.83
31062;BME280;17724;53.546;9.974;2024-03-08T07:00:11;102201.53;;;2.90;91.73
31062;BME280;17724;53.546;9.974;2024-03-08T07:04:13;102204.44;;;2.81;91.65
31062;BME280;17724;53.546;9.974;2024-03-08T07:08:14;102194.38;;;2.97;91.18
31062;BME280;17724;53.546;9.974;2024-03-08T07:12:16;102211.44;;;2.83;90.26
31062;BME280;17724;53.546;9.974;2024-03-08T07:16:16;102210.88;;;2.96;89.98
31062;BME280;17724;53.546;9.974;2024-03-08T07:20:17;102177.88;;;3.15;88.57
31062;BME280;17724;53.546;9.974;2024-03-08T07:24:19;102195.06;;;3.08;87.95
31062;BME280;17724;53.546;9.974;2024-03-08T07:28:40;102204.56;;;3.43;87.70
31062;BME280;17724;53.546;9.974;2024-03-08T07:32:40;102213.28;;;3.38;86.26
31062;BME280;17724;53.546;9.974;2024-03-08T07:36:41;102208.44;;;3.09;86.35
31062;BME280;17724;53.546;9.974;2024-03-08T07:40:41;102207.19;;;3.36;86.26
31062;BME280;17724;53.546;9.974;2024-03-08T07:44:45;102206.22;;;3.60;84.64
31062;BME280;17724;53.546;9.974;2024-03-08T07:48:48;102208.94;;;3.60;84.73
31062;BME280;17724;53.546;9.974;2024-03-08T07:52:49;102203.59;;;3.67;84.50
31062;BME280;17724;53.546;9.974;2024-03-08T07:56:49;102181.78;;;3.52;84.49
31062;BME280;17724;53.546;9.974;2024-03-08T08:00:51;102191.06;;;3.89;82.73
31062;BME280;17724;53.546;9.974;2024-03-08T08:04:51;102206.50;;;3.97;81.93
31062;BME280;17724;53.546;9.974;2024-03-08T08:08:52;102190.59;;;4.08;81.67
31062;BME280;17724;53.546;9.974;2024-03-08T08:12:52;102196.00;;;4.16;80.31
31062;BME280;17724;53.546;9.974;2024-03-08T08:16:53;102201.03;;;4.42;78.82
31062;BME280;17724;53.546;9.974;2024-03-08T08:20:56;102204.25;;;4.46;77.91
31062;BME280;17724;53.546;9.974;2024-03-08T08:24:56;102195.91;;;4.62;77.82
31062;BME280;17724;53.546;9.974;2024-03-08T08:28:57;102198.50;;;5.38;75.81
31062;BME280;17724;53.546;9.974;2024-03-08T08:32:57;102202.31;;;6.09;71.48
31062;BME280;17724;53.546;9.974;2024-03-08T08:37:01;102200.22;;;7.52;68.49
31062;BME280;17724;53.546;9.974;2024-03-08T08:41:01;102196.19;;;8.02;62.33
31062;BME280;17724;53.546;9.974;2024-03-08T08:45:03;102181.28;;;7.57;60.88
31062;BME280;17724;53.546;9.974;2024-03-08T08:49:06;102191.72;;;6.71;62.18
31062;BME280;17724;53.546;9.974;2024-03-08T08:53:10;102184.97;;;7.90;62.10
31062;BME280;17724;53.546;9.974;2024-03-08T08:57:11;102195.41;;;8.75;58.78
31062;BME280;17724;53.546;9.974;2024-03-08T09:01:12;102169.44;;;7.50;59.54
31062;BME280;17724;53.546;9.974;2024-03-08T09:05:12;102185.84;;;8.18;58.62
31062;BME280;17724;53.546;9.974;2024-03-08T09:09:15;102157.00;;;8.68;56.60
31062;BME280;17724;53.546;9.974;2024-03-08T09:13:17;102172.84;;;8.59;56.73
31062;BME280;17724;53.546;9.974;2024-03-08T09:17:18;102166.31;;;8.47;56.75
31062;BME280;17724;53.546;9.974;2024-03-08T09:21:21;102156.59;;;8.78;57.44
31062;BME280;17724;53.546;9.974;2024-03-08T09:25:22;102138.47;;;8.63;56.92
31062;BME280;17724;53.546;9.974;2024-03-08T09:29:22;102142.63;;;8.00;57.40
31062;BME280;17724;53.546;9.974;2024-03-08T09:33:23;102130.66;;;8.34;57.61
31062;BME280;17724;53.546;9.974;2024-03-08T09:37:24;102126.63;;;8.17;56.57
31062;BME280;17724;53.546;9.974;2024-03-08T09:41:24;102121.78;;;7.99;58.59
31062;BME280;17724;53.546;9.974;2024-03-08T09:45:25;102086.53;;;7.69;57.64
31062;BME280;17724;53.546;9.974;2024-03-08T09:49:26;102115.94;;;7.40;58.84
31062;BME280;17724;53.546;9.974;2024-03-08T09:53:27;102095.97;;;6.99;59.29
31062;BME280;17724;53.546;9.974;2024-03-08T09:57:28;102100.19;;;7.56;58.17
31062;BME280;17724;53.546;9.974;2024-03-08T10:01:29;102087.94;;;7.45;58.51
31062;BME280;17724;53.546;9.974;2024-03-08T10:05:32;102091.31;;;7.47;57.45
31062;BME280;17724;53.546;9.974;2024-03-08T10:09:33;102083.22;;;7.19;57.16
31062;BME280;17724;53.546;9.974;2024-03-08T10:13:34;102076.00;;;7.05;57.88
31062;BME280;17724;53.546;9.974;2024-03-08T10:17:35;102072.56;;;7.44;58.18
31062;BME280;17724;53.546;9.974;2024-03-08T10:21:36;102074.56;;;7.09;58.01
31062;BME280;17724;53.546;9.974;2024-03-08T10:25:36;102057.31;;;7.08;58.66
31062;BME280;17724;53.546;9.974;2024-03-08T10:29:37;102061.06;;;7.01;58.09
31062;BME280;17724;53.546;9.974;2024-03-08T10:33:39;102046.53;;;7.00;57.35
31062;BME280;17724;53.546;9.974;2024-03-08T10:37:44;102040.06;;;7.14;56.85
31062;BME280;17724;53.546;9.974;2024-03-08T10:41:58;102037.34;;;7.21;56.66
31062;BME280;17724;53.546;9.974;2024-03-08T10:50:28;102027.69;;;7.19;54.45
31062;BME280;17724;53.546;9.974;2024-03-08T10:54:31;102028.81;;;7.51;55.14
31062;BME280;17724;53.546;9.974;2024-03-08T10:58:33;102018.75;;;6.97;54.79
31062;BME280;17724;53.546;9.974;2024-03-08T11:02:35;102013.78;;;7.20;54.92
31062;BME280;17724;53.546;9.974;2024-03-08T11:10:52;101989.81;;;7.49;54.88
31062;BME280;17724;53.546;9.974;2024-03-08T11:14:57;102003.28;;;7.30;54.34
31062;BME280;17724;53.546;9.974;2024-03-08T11:19:00;101994.25;;;7.43;53.82
31062;BME280;17724;53.546;9.974;2024-03-08T11:23:10;101990.25;;;7.52;53.81
31062;BME280;17724;53.546;9.974;2024-03-08T11:27:12;101987.94;;;7.49;54.33
31062;BME280;17724;53.546;9.974;2024-03-08T11:35:21;101973.00;;;7.38;53.86
31062;BME280;17724;53.546;9.974;2024-03-08T11:39:23;101955.50;;;7.79;53.76
31062;BME280;17724;53.546;9.974;2024-03-08T11:43:24;101963.25;;;8.09;52.48
31062;BME280;17724;53.546;9.974;2024-03-08T11:47:25;101957.63;;;7.84;53.08
31062;BME280;17724;53.546;9.974;2024-03-08T11:51:27;101944.47;;;8.39;52.98
31062;BME280;17724;53.546;9.974;2024-03-08T11:55:27;101946.44;;;7.99;52.84
31062;BME280;17724;53.546;9.974;2024-03-08T11:59:29;101939.91;;;8.00;50.65
31062;BME280;17724;53.546;9.974;2024-03-08T12:03:31;101942.03;;;7.84;50.79
31062;BME280;17724;53.546;9.974;2024-03-08T12:07:34;101937.59;;;7.90;51.29
31062;BME280;17724;53.546;9.974;2024-03-08T12:11:34;101918.63;;;7.82;52.14
31062;BME280;17724;53.546;9.974;2024-03-08T12:15:36;101911.84;;;8.04;51.94
31062;BME280;17724;53.546;9.974;2024-03-08T12:19:36;101901.53;;;8.00;51.65
31062;BME280;17724;53.546;9.974;2024-03-08T12:23:38;101907.81;;;8.20;51.46
31062;BME280;17724;53.546;9.974;2024-03-08T12:27:43;101905.88;;;8.41;50.92
31062;BME280;17724;53.546;9.974;2024-03-08T12:31:43;101887.72;;;8.33;50.82
31062;BME280;17724;53.546;9.974;2024-03-08T12:35:54;101883.09;;;8.47;51.08
31062;BME280;17724;53.546;9.974;2024-03-08T12:39:55;101875.09;;;8.32;51.18
31062;BME280;17724;53.546;9.974;2024-03-08T12:43:56;101873.13;;;8.52;50.78
31062;BME280;17724;53.546;9.974;2024-03-08T12:47:56;101870.69;;;8.76;49.55
31062;BME280;17724;53.546;9.974;2024-03-08T12:51:57;101843.41;;;8.49;49.00
31062;BME280;17724;53.546;9.974;2024-03-08T12:55:58;101829.16;;;8.27;49.29
31062;BME280;17724;53.546;9.974;2024-03-08T12:59:58;101828.69;;;8.75;49.35
31062;BME280;17724;53.546;9.974;2024-03-08T13:04:00;101845.59;;;8.72;49.02
31062;BME280;17724;53.546;9.974;2024-03-08T13:08:03;101824.47;;;8.79;49.62
31062;BME280;17724;53.546;9.974;2024-03-08T13:12:04;101824.59;;;9.16;48.66
31062;BME280;17724;53.546;9.974;2024-03-08T13:16:07;101806.28;;;9.10;47.83
31062;BME280;17724;53.546;9.974;2024-03-08T13:20:09;101823.50;;;9.17;47.18
31062;BME280;17724;53.546;9.974;2024-03-08T13:24:10;101795.78;;;8.75;47.36
31062;BME280;17724;53.546;9.974;2024-03-08T13:28:11;101796.25;;;8.97;47.09
31062;BME280;17724;53.546;9.974;2024-03-08T13:32:12;101779.72;;;9.29;46.78
31062;BME280;17724;53.546;9.974;2024-03-08T13:36:13;101776.56;;;9.25;46.81
31062;BME280;17724;53.546;9.974;2024-03-08T13:40:19;101771.19;;;9.37;46.40
31062;BME280;17724;53.546;9.974;2024-03-08T13:44:20;101756.03;;;9.34;45.98
31062;BME280;17724;53.546;9.974;2024-03-08T13:48:21;101740.06;;;9.25;45.99
31062;BME280;17724;53.546;9.974;2024-03-08T13:52:22;101742.09;;;9.11;46.06
31062;BME280;17724;53.546;9.974;2024-03-08T13:56:25;101731.06;;;9.18;46.23
31062;BME280;17724;53.546;9.974;2024-03-08T14:00:26;101715.38;;;9.43;46.20
31062;BME280;17724;53.546;9.974;2024-03-08T14:04:28;101715.44;;;9.36;46.11
31062;BME280;17724;53.546;9.974;2024-03-08T14:08:29;101714.53;;;9.43;45.64
31062;BME280;17724;53.546;9.974;2024-03-08T14:12:30;101708.72;;;9.69;45.94
31062;BME280;17724;53.546;9.974;2024-03-08T14:16:31;101704.59;;;9.60;45.09
31062;BME280;17724;53.546;9.974;2024-03-08T14:20:32;101690.50;;;9.56;45.25
31062;BME280;17724;53.546;9.974;2024-03-08T14:24:32;101681.09;;;9.64;44.47
31062;BME280;17724;53.546;9.974;2024-03-08T14:28:35;101683.09;;;9.57;44.34
31062;BME280;17724;53.546;9.974;2024-03-08T14:32:36;101675.03;;;9.44;44.27
31062;BME280;17724;53.546;9.974;2024-03-08T14:36:39;101685.44;;;9.53;43.92
31062;BME280;17724;53.546;9.974;2024-03-08T14:40:39;101661.75;;;9.41;44.56
31062;BME280;17724;53.546;9.974;2024-03-08T14:44:41;101654.34;;;9.41;44.51
31062;BME280;17724;53.546;9.974;2024-03-08T14:48:45;101652.44;;;9.60;43.27
31062;BME280;17724;53.546;9.974;2024-03-08T14:52:46;101656.06;;;9.72;43.02
31062;BME280;17724;53.546;9.974;2024-03-08T14:56:49;101660.03;;;9.76;43.45
31062;BME280;17724;53.546;9.974;2024-03-08T15:00:50;101645.00;;;9.79;43.11
31062;BME280;17724;53.546;9.974;2024-03-08T15:04:55;101635.84;;;9.97;43.23
31062;BME280;17724;53.546;9.974;2024-03-08T15:09:01;101616.72;;;9.90;42.84
31062;BME280;17724;53.546;9.974;2024-03-08T15:13:06;101630.88;;;9.75;43.30
31062;BME280;17724;53.546;9.974;2024-03-08T15:17:14;101627.16;;;9.70;42.64
31062;BME280;17724;53.546;9.974;2024-03-08T15:21:21;101628.38;;;9.74;42.42
31062;BME280;17724;53.546;9.974;2024-03-08T15:25:22;101628.78;;;9.89;42.63
31062;BME280;17724;53.546;9.974;2024-03-08T15:29:29;101606.66;;;9.84;42.46
31062;BME280;17724;53.546;9.974;2024-03-08T15:33:35;101615.56;;;9.98;42.25
31062;BME280;17724;53.546;9.974;2024-03-08T15:37:43;101628.25;;;10.10;41.63
31062;BME280;17724;53.546;9.974;2024-03-08T15:41:45;101614.59;;;10.34;42.08
31062;BME280;17724;53.546;9.974;2024-03-08T15:45:45;101612.84;;;10.21;42.88
31062;BME280;17724;53.546;9.974;2024-03-08T15:49:49;101599.28;;;10.26;42.22
31062;BME280;17724;53.546;9.974;2024-03-08T15:53:49;101588.09;;;10.21;43.00
31062;BME280;17724;53.546;9.974;2024-03-08T15:57:56;101585.84;;;10.06;43.04
31062;BME280;17724;53.546;9.974;2024-03-08T16:02:00;101578.03;;;9.92;43.73
31062;BME280;17724;53.546;9.974;2024-03-08T16:06:00;101575.13;;;9.75;43.68
31062;BME280;17724;53.546;9.974;2024-03-08T16:10:01;101566.41;;;9.78;43.57
31062;BME280;17724;53.546;9.974;2024-03-08T16:14:01;101561.75;;;9.78;43.43
31062;BME280;17724;53.546;9.974;2024-03-08T16:18:03;101566.41;;;9.78;43.39
31062;BME280;17724;53.546;9.974;2024-03-08T16:22:05;101557.06;;;9.67;43.27
31062;BME280;17724;53.546;9.974;2024-03-08T16:26:05;101554.56;;;9.66;43.53
31062;BME280;17724;53.546;9.974;2024-03-08T16:30:09;101552.03;;;9.64;43.29
31062;BME280;17724;53.546;9.974;2024-03-08T16:34:15;101551.94;;;9.41;43.13
31062;BME280;17724;53.546;9.974;2024-03-08T16:38:17;101556.19;;;9.55;43.35
31062;BME280;17724;53.546;9.974;2024-03-08T16:42:18;101549.34;;;9.57;43.06
31062;BME280;17724;53.546;9.974;2024-03-08T16:46:21;101542.72;;;9.35;43.96
31062;BME280;17724;53.546;9.974;2024-03-08T16:50:21;101532.63;;;9.47;44.32
31062;BME280;17724;53.546;9.974;2024-03-08T16:54:23;101543.53;;;9.54;44.09
31062;BME280;17724;53.546;9.974;2024-03-08T16:58:24;101538.69;;;9.49;44.08
31062;BME280;17724;53.546;9.974;2024-03-08T17:02:24;101531.75;;;9.35;44.06
31062;BME280;17724;53.546;9.974;2024-03-08T17:06:25;101534.75;;;9.45;44.09
31062;BME280;17724;53.546;9.974;2024-03-08T17:10:27;101529.22;;;9.33;44.28
31062;BME280;17724;53.546;9.974;2024-03-08T17:14:28;101515.88;;;9.37;45.30
31062;BME280;17724;53.546;9.974;2024-03-08T17:18:29;101527.75;;;9.61;47.59
31062;BME280;17724;53.546;9.974;2024-03-08T17:22:30;101532.25;;;9.44;48.52
31062;BME280;17724;53.546;9.974;2024-03-08T17:26:30;101530.22;;;9.39;49.42
31062;BME280;17724;53.546;9.974;2024-03-08T17:30:31;101523.31;;;9.48;49.56
31062;BME280;17724;53.546;9.974;2024-03-08T17:34:32;101521.81;;;9.04;50.92
31062;BME280;17724;53.546;9.974;2024-03-08T17:38:33;101518.56;;;9.25;50.78
31062;BME280;17724;53.546;9.974;2024-03-08T17:42:34;101519.13;;;8.97;51.50
31062;BME280;17724;53.546;9.974;2024-03-08T17:46:34;101525.69;;;8.96;51.88
31062;BME280;17724;53.546;9.974;2024-03-08T17:50:39;101522.56;;;8.93;52.34
31062;BME280;17724;53.546;9.974;2024-03-08T17:54:40;101424.75;;;8.13;52.82
31062;BME280;17724;53.546;9.974;2024-03-08T17:58:40;101515.78;;;8.77;52.65
31062;BME280;17724;53.546;9.974;2024-03-08T18:02:41;101509.63;;;8.63;53.03
31062;BME280;17724;53.546;9.974;2024-03-08T18:06:41;101500.66;;;8.56;52.63
31062;BME280;17724;53.546;9.974;2024-03-08T18:10:42;101512.59;;;8.61;52.69
31062;BME280;17724;53.546;9.974;2024-03-08T18:14:43;101505.59;;;8.47;53.07
31062;BME280;17724;53.546;9.974;2024-03-08T18:18:45;101499.97;;;8.60;52.27
31062;BME280;17724;53.546;9.974;2024-03-08T18:22:48;101489.09;;;8.54;52.01
31062;BME280;17724;53.546;9.974;2024-03-08T18:26:48;101501.41;;;8.45;52.16
31062;BME280;17724;53.546;9.974;2024-03-08T18:30:49;101499.38;;;8.33;51.99
31062;BME280;17724;53.546;9.974;2024-03-08T18:34:51;101497.41;;;8.22;52.00
31062;BME280;17724;53.546;9.974;2024-03-08T18:38:52;101489.25;;;8.34;51.65
31062;BME280;17724;53.546;9.974;2024-03-08T18:42:54;101480.22;;;8.08;51.77
31062;BME280;17724;53.546;9.974;2024-03-08T18:46:54;101483.84;;;8.27;51.72
31062;BME280;17724;53.546;9.974;2024-03-08T18:50:57;101488.44;;;8.08;51.66
31062;BME280;17724;53.546;9.974;2024-03-08T18:54:59;101494.06;;;7.95;51.59
31062;BME280;17724;53.546;9.974;2024-03-08T18:59:00;101493.41;;;7.93;51.86
31062;BME280;17724;53.546;9.974;2024-03-08T19:03:00;101468.34;;;7.96;51.77
31062;BME280;17724;53.546;9.974;2024-03-08T19:07:05;101485.72;;;8.08;51.68
31062;BME280;17724;53.546;9.974;2024-03-08T19:11:05;101483.31;;;7.94;51.55
31062;BME280;17724;53.546;9.974;2024-03-08T19:15:06;101486.66;;;7.96;51.74
31062;BME280;17724;53.546;9.974;2024-03-08T19:19:09;101480.84;;;7.85;51.75
31062;BME280;17724;53.546;9.974;2024-03-08T19:23:10;101471.69;;;7.73;52.23
31062;BME280;17724;53.546;9.974;2024-03-08T19:27:11;101472.22;;;7.82;52.13
31062;BME280;17724;53.546;9.974;2024-03-08T19:31:12;101468.09;;;7.73;52.24
31062;BME280;17724;53.546;9.974;2024-03-08T19:35:15;101466.72;;;7.63;52.66
31062;BME280;17724;53.546;9.974;2024-03-08T19:39:19;101469.97;;;7.79;52.49
31062;BME280;17724;53.546;9.974;2024-03-08T19:43:22;101472.03;;;7.58;52.44
31062;BME280;17724;53.546;9.974;2024-03-08T19:47:27;101460.72;;;7.48;52.96
31062;BME280;17724;53.546;9.974;2024-03-08T19:51:29;101472.22;;;7.57;52.98
31062;BME280;17724;53.546;9.974;2024-03-08T19:55:30;101475.63;;;7.52;52.97
31062;BME280;17724;53.546;9.974;2024-03-08T19:59:34;101464.13;;;7.44;52.86
31062;BME280;17724;53.546;9.974;2024-03-08T20:03:41;101463.03;;;7.51;53.08
31062;BME280;17724;53.546;9.974;2024-03-08T20:07:43;101471.13;;;7.33;53.12
31062;BME280;17724;53.546;9.974;2024-03-08T20:11:43;101463.97;;;7.38;53.10
31062;BME280;17724;53.546;9.974;2024-03-08T20:15:45;101461.56;;;7.49;53.04
31062;BME280;17724;53.546;9.974;2024-03-08T20:19:46;101449.59;;;7.43;53.01
31062;BME280;17724;53.546;9.974;2024-03-08T20:23:46;101448.78;;;7.43;53.10
31062;BME280;17724;53.546;9.974;2024-03-08T20:27:50;101443.50;;;7.41;52.80
31062;BME280;17724;53.546;9.974;2024-03-08T20:31:53;101440.78;;;7.41;53.31
31062;BME280;17724;53.546;9.974;2024-03-08T20:35:54;101438.69;;;7.36;53.27
31062;BME280;17724;53.546;9.974;2024-03-08T20:39:54;101447.56;;;7.32;53.30
31062;BME280;17724;53.546;9.974;2024-03-08T20:43:57;101438.75;;;7.30;53.64
31062;BME280;17724;53.546;9.974;2024-03-08T20:47:57;101438.25;;;7.39;53.07
31062;BME280;17724;53.546;9.974;2024-03-08T20:51:58;101426.75;;;7.31;53.17
31062;BME280;17724;53.546;9.974;2024-03-08T20:55:59;101432.78;;;7.39;52.90
31062;BME280;17724;53.546;9.974;2024-03-08T21:00:00;101418.75;;;7.29;52.89
31062;BME280;17724;53.546;9.974;2024-03-08T21:04:00;101422.53;;;7.03;53.26
31062;BME280;17724;53.546;9.974;2024-03-08T21:08:01;101412.31;;;7.17;52.96
31062;BME280;17724;53.546;9.974;2024-03-08T21:12:08;101404.88;;;6.99;53.10
31062;BME280;17724;53.546;9.974;2024-03-08T21:16:11;101394.78;;;6.93;53.17
31062;BME280;17724;53.546;9.974;2024-03-08T21:20:12;101395.19;;;6.97;52.98
31062;BME280;17724;53.546;9.974;2024-03-08T21:24:12;101378.31;;;6.75;53.51
31062;BME280;17724;53.546;9.974;2024-03-08T21:28:13;101384.09;;;6.91;53.44
31062;BME280;17724;53.546;9.974;2024-03-08T21:32:15;101377.38;;;6.87;53.25